createdAt,value
2018-12-11T00:00:15.938Z,3.40
2018-12-11T00:02:46.252Z,2.87
2018-12-11T00:05:17.244Z,3.53
2018-12-11T00:07:48.323Z,4.33
2018-12-11T00:10:18.980Z,3.93
2018-12-11T00:12:49.647Z,2.70
2018-12-11T00:15:20.221Z,2.63
2018-12-11T00:17:51.287Z,3.67
2018-12-11T00:20:21.971Z,3.00
2018-12-11T00:22:52.769Z,4.20
2018-12-11T00:25:23.435Z,3.50
2018-12-11T00:27:54.143Z,3.20
2018-12-11T00:30:25.118Z,3.17
2018-12-11T00:32:55.904Z,4.40
2018-12-11T00:35:27.427Z,3.90
2018-12-11T00:37:58.292Z,4.00
2018-12-11T00:40:29.025Z,3.63
2018-12-11T00:42:59.537Z,3.67
2018-12-11T00:45:30.184Z,3.13
2018-12-11T00:48:01.273Z,3.77
2018-12-11T00:50:31.992Z,4.03
2018-12-11T00:53:02.983Z,3.53
2018-12-11T00:55:34.019Z,3.33
2018-12-11T00:58:05.970Z,3.67
2018-12-11T01:00:36.937Z,3.47
2018-12-11T01:03:07.731Z,3.50
2018-12-11T01:05:38.380Z,2.87
2018-12-11T01:08:08.778Z,3.17
2018-12-11T01:10:38.980Z,3.47
2018-12-11T01:13:10.331Z,2.97
2018-12-11T01:15:41.130Z,2.83
2018-12-11T01:18:11.831Z,2.70
2018-12-11T01:20:43.246Z,3.30
2018-12-11T01:23:15.190Z,3.83
2018-12-11T01:25:46.031Z,3.53
2018-12-11T01:28:17.679Z,2.60
2018-12-11T01:30:48.429Z,2.60
2018-12-11T01:33:19.237Z,2.87
2018-12-11T01:35:49.836Z,3.00
2018-12-11T01:38:20.736Z,3.40
2018-12-11T01:40:50.631Z,2.67
2018-12-11T01:43:20.984Z,2.80
2018-12-11T01:45:51.636Z,3.00
2018-12-11T01:48:22.591Z,3.43
2018-12-11T01:50:53.795Z,3.07
2018-12-11T01:53:24.572Z,2.93
2018-12-11T01:55:55.454Z,2.50
2018-12-11T01:58:25.421Z,3.60
2018-12-11T02:00:56.152Z,2.90
2018-12-11T02:03:27.644Z,3.30
2018-12-11T02:05:58.380Z,2.57
2018-12-11T02:08:28.415Z,3.67
2018-12-11T02:10:59.218Z,2.63
2018-12-11T02:13:30.597Z,2.67
2018-12-11T02:16:00.657Z,3.67
2018-12-11T02:18:31.020Z,2.90
2018-12-11T02:21:01.793Z,4.30
2018-12-11T02:23:32.038Z,3.67
2018-12-11T02:26:03.001Z,3.30
2018-12-11T02:28:33.693Z,4.03
2018-12-11T02:31:04.266Z,3.73
2018-12-11T02:33:35.890Z,4.40
2018-12-11T02:36:05.890Z,3.60
2018-12-11T02:38:36.730Z,3.30
2018-12-11T02:41:06.826Z,2.70
2018-12-11T02:43:37.895Z,3.50
2018-12-11T02:46:08.742Z,3.40
2018-12-11T02:48:40.042Z,4.30
2018-12-11T02:51:10.867Z,4.20
2018-12-11T02:53:42.187Z,4.90
2018-12-11T02:56:12.973Z,2.93
2018-12-11T02:58:43.558Z,3.97
2018-12-11T03:01:14.591Z,3.50
2018-12-11T03:03:45.652Z,4.03
2018-12-11T03:06:16.586Z,2.60
2018-12-11T03:08:48.275Z,3.20
2018-12-11T03:11:19.207Z,4.17
2018-12-11T03:13:49.838Z,4.87
2018-12-11T03:16:20.633Z,4.63
2018-12-11T03:18:51.490Z,3.77
2018-12-11T03:21:22.316Z,3.70
2018-12-11T03:23:52.927Z,5.03
2018-12-11T03:26:23.773Z,3.37
2018-12-11T03:28:54.914Z,3.90
2018-12-11T03:31:26.449Z,3.23
2018-12-11T03:33:57.344Z,5.00
2018-12-11T03:36:28.241Z,3.63
2018-12-11T03:38:58.428Z,4.43
2018-12-11T03:41:29.527Z,4.07
2018-12-11T03:44:01.293Z,3.63
2018-12-11T03:46:31.881Z,3.17
2018-12-11T03:49:02.087Z,2.83
2018-12-11T03:51:32.033Z,4.30
2018-12-11T03:54:03.686Z,3.30
2018-12-11T03:56:34.485Z,3.17
2018-12-11T03:59:04.961Z,3.67
2018-12-11T04:01:35.464Z,2.87
2018-12-11T04:04:06.294Z,3.53
2018-12-11T04:06:37.158Z,3.43
2018-12-11T04:09:09.313Z,5.90
2018-12-11T04:11:40.189Z,5.20
2018-12-11T04:14:10.563Z,5.23
2018-12-11T04:16:41.236Z,4.47
2018-12-11T04:19:12.048Z,4.00
2018-12-11T04:21:42.666Z,5.00
2018-12-11T04:24:13.477Z,4.30
2018-12-11T04:26:44.184Z,2.97
2018-12-11T04:29:14.927Z,3.67
2018-12-11T04:31:45.959Z,4.57
2018-12-11T04:34:16.604Z,4.10
2018-12-11T04:36:47.406Z,5.40
2018-12-11T04:39:18.110Z,4.83
2018-12-11T04:41:48.677Z,4.80
2018-12-11T04:44:19.296Z,3.53
2018-12-11T04:46:50.275Z,3.63
2018-12-11T04:49:21.035Z,5.97
2018-12-11T04:51:52.045Z,3.37
2018-12-11T04:54:22.786Z,4.13
2018-12-11T04:56:53.324Z,4.50
2018-12-11T04:59:23.890Z,4.43
2018-12-11T05:01:54.402Z,3.70
2018-12-11T05:04:25.013Z,4.67
2018-12-11T05:06:55.613Z,3.77
2018-12-11T05:09:26.794Z,3.33
2018-12-11T05:11:57.554Z,4.13
2018-12-11T05:14:28.414Z,3.73
2018-12-11T05:16:59.372Z,5.67
2018-12-11T05:19:29.972Z,4.60
2018-12-11T05:22:00.675Z,4.70
2018-12-11T05:24:31.285Z,5.43
2018-12-11T05:27:01.898Z,3.97
2018-12-11T05:29:32.818Z,4.63
2018-12-11T05:32:03.564Z,4.03
2018-12-11T05:34:34.419Z,4.07
2018-12-11T05:37:05.591Z,4.83
2018-12-11T05:39:36.280Z,3.47
2018-12-11T05:42:07.538Z,4.10
2018-12-11T05:44:38.507Z,5.40
2018-12-11T05:47:08.994Z,2.97
2018-12-11T05:49:40.887Z,3.83
2018-12-11T05:52:11.899Z,3.53
2018-12-11T05:54:42.752Z,3.33
2018-12-11T05:57:13.802Z,3.23
2018-12-11T05:59:44.584Z,3.80
2018-12-11T06:02:15.537Z,2.77
2018-12-11T06:04:46.551Z,3.27
2018-12-11T06:07:17.722Z,4.20
2018-12-11T06:09:49.061Z,4.03
2018-12-11T06:12:20.366Z,5.37
2018-12-11T06:14:52.027Z,4.90
2018-12-11T06:17:23.118Z,3.93
2018-12-11T06:19:53.382Z,4.93
2018-12-11T06:22:24.252Z,5.87
2018-12-11T06:24:54.895Z,5.87
2018-12-11T06:27:25.514Z,5.10
2018-12-11T06:29:56.530Z,5.60
2018-12-11T06:32:27.329Z,4.67
2018-12-11T06:34:58.055Z,5.00
2018-12-11T06:37:28.267Z,4.83
2018-12-11T06:39:58.994Z,4.10
2018-12-11T06:42:30.427Z,4.20
2018-12-11T06:45:01.704Z,4.63
2018-12-11T06:47:32.428Z,4.67
2018-12-11T06:50:03.099Z,4.60
2018-12-11T06:52:34.708Z,4.53
2018-12-11T06:55:05.498Z,4.63
2018-12-11T06:57:35.968Z,5.80
2018-12-11T07:00:07.443Z,3.77
2018-12-11T07:02:38.345Z,5.43
2018-12-11T07:05:08.892Z,4.73
2018-12-11T07:07:39.640Z,3.87
2018-12-11T07:10:12.170Z,3.73
2018-12-11T07:12:43.265Z,5.30
2018-12-11T07:15:14.112Z,3.40
2018-12-11T07:17:44.724Z,2.87
2018-12-11T07:20:15.422Z,3.47
2018-12-11T07:22:47.037Z,3.23
2018-12-11T07:25:18.663Z,5.40
2018-12-11T07:27:51.353Z,3.40
2018-12-11T07:30:22.211Z,3.60
2018-12-11T07:32:53.608Z,4.83
2018-12-11T07:35:24.865Z,3.57
2018-12-11T07:37:55.454Z,2.70
2018-12-11T07:40:27.116Z,2.50
2018-12-11T07:42:57.673Z,3.60
2018-12-11T07:45:28.003Z,4.20
2018-12-11T07:47:58.820Z,5.23
2018-12-11T07:50:29.944Z,3.50
2018-12-11T07:53:00.854Z,3.67
2018-12-11T07:55:32.020Z,3.90
2018-12-11T07:58:03.247Z,4.30
2018-12-11T08:00:35.419Z,3.83
2018-12-11T08:03:07.133Z,3.60
2018-12-11T08:05:38.105Z,3.90
2018-12-11T08:08:10.864Z,2.93
2018-12-11T08:10:41.700Z,3.27
2018-12-11T08:13:12.766Z,3.10
2018-12-11T08:15:43.689Z,3.00
2018-12-11T08:18:14.457Z,2.53
2018-12-11T08:20:45.192Z,4.23
2018-12-11T08:23:16.448Z,4.23
2018-12-11T08:25:47.915Z,3.27
2018-12-11T08:28:18.665Z,3.00
2018-12-11T08:30:49.786Z,3.57
2018-12-11T08:33:20.118Z,3.03
2018-12-11T08:35:50.667Z,3.40
2018-12-11T08:38:22.242Z,4.00
2018-12-11T08:40:53.491Z,2.87
2018-12-11T08:43:25.045Z,3.13
2018-12-11T08:45:56.868Z,2.30
2018-12-11T08:48:27.894Z,3.07
2018-12-11T08:50:59.415Z,2.60
2018-12-11T08:53:30.459Z,3.27
2018-12-11T08:56:01.190Z,3.10
2018-12-11T08:58:32.272Z,4.23
2018-12-11T09:01:03.102Z,3.70
2018-12-11T09:03:33.739Z,3.17
2018-12-11T09:06:04.454Z,3.13
2018-12-11T09:08:35.335Z,3.13
2018-12-11T09:11:06.209Z,3.40
2018-12-11T09:13:37.004Z,3.27
2018-12-11T09:16:07.714Z,3.70
2018-12-11T09:18:38.385Z,3.20
2018-12-11T09:21:09.223Z,3.30
2018-12-11T09:23:39.897Z,3.10
2018-12-11T09:26:11.418Z,2.47
2018-12-11T09:28:42.548Z,2.50
2018-12-11T09:31:13.977Z,3.70
2018-12-11T09:33:47.586Z,3.03
2018-12-11T09:36:21.746Z,3.20
2018-12-11T09:45:05.547Z,2.77
2018-12-11T09:47:37.184Z,3.50
2018-12-11T09:50:11.327Z,3.03
2018-12-11T09:52:44.897Z,3.17
2018-12-11T09:55:17.530Z,3.47
2018-12-11T09:58:15.124Z,3.20
2018-12-11T10:00:52.284Z,2.73
2018-12-11T10:03:25.918Z,2.83
2018-12-11T10:05:59.463Z,2.37
2018-12-11T10:08:31.885Z,3.23
2018-12-11T10:11:04.843Z,3.63
2018-12-11T10:13:38.354Z,2.27
2018-12-11T10:16:12.104Z,2.40
2018-12-11T10:18:43.005Z,3.57
2018-12-11T10:21:13.907Z,2.90
2018-12-11T10:23:45.560Z,3.80
2018-12-11T10:26:16.591Z,2.97
2018-12-11T10:28:47.984Z,3.07
2018-12-11T10:31:19.057Z,3.23
2018-12-11T10:33:50.709Z,2.70
2018-12-11T10:36:21.889Z,2.97
2018-12-11T10:38:53.046Z,3.13
2018-12-11T10:41:24.376Z,2.33
2018-12-11T10:43:55.593Z,2.30
2018-12-11T10:46:26.989Z,2.77
2018-12-11T10:48:57.977Z,2.70
2018-12-11T10:51:29.493Z,2.93
2018-12-11T10:54:03.155Z,2.43
2018-12-11T10:56:34.162Z,3.13
2018-12-11T10:59:05.037Z,2.63
2018-12-11T11:01:41.190Z,2.90
2018-12-11T11:04:12.443Z,2.40
2018-12-11T11:06:43.396Z,1.87
2018-12-11T11:09:14.146Z,1.67
2018-12-11T11:11:44.023Z,3.37
2018-12-11T11:14:14.406Z,2.50
2018-12-11T11:16:45.771Z,3.03
2018-12-11T11:19:17.193Z,2.70
2018-12-11T11:21:48.983Z,3.90
2018-12-11T11:24:20.687Z,3.50
2018-12-11T11:26:51.245Z,3.57
2018-12-11T11:29:22.087Z,3.70
2018-12-11T11:31:53.491Z,2.50
2018-12-11T11:34:24.383Z,1.90
2018-12-11T11:36:55.438Z,2.40
2018-12-11T11:39:26.321Z,2.37
2018-12-11T11:41:57.490Z,2.60
2018-12-11T11:44:28.132Z,2.40
2018-12-11T11:46:59.673Z,2.27
2018-12-11T11:49:30.389Z,2.70
2018-12-11T11:52:00.936Z,2.33
2018-12-11T11:54:31.890Z,2.57
2018-12-11T11:57:02.973Z,3.00
2018-12-11T11:59:34.448Z,2.63
2018-12-11T12:02:05.216Z,2.90
2018-12-11T12:04:36.623Z,3.07
2018-12-11T12:07:07.445Z,2.87
2018-12-11T12:09:38.065Z,2.50
2018-12-11T12:12:08.767Z,2.90
2018-12-11T12:14:38.656Z,3.20
2018-12-11T12:17:08.491Z,2.33
2018-12-11T12:19:39.826Z,2.60
2018-12-11T12:22:10.703Z,2.43
2018-12-11T12:24:41.585Z,2.80
2018-12-11T12:27:13.614Z,2.10
2018-12-11T12:29:44.823Z,2.23
2018-12-11T12:32:15.997Z,2.60
2018-12-11T12:34:48.644Z,2.77
2018-12-11T12:37:19.900Z,4.10
2018-12-11T12:39:50.545Z,3.00
2018-12-11T12:42:22.059Z,3.40
2018-12-11T12:44:53.328Z,2.70
2018-12-11T12:47:25.200Z,2.17
2018-12-11T12:49:56.916Z,2.63
2018-12-11T12:52:28.100Z,2.10
2018-12-11T12:55:00.053Z,2.67
2018-12-11T12:57:31.006Z,2.20
2018-12-11T13:00:02.346Z,2.60
2018-12-11T13:02:33.442Z,2.27
2018-12-11T13:05:05.498Z,2.90
2018-12-11T13:07:36.378Z,2.73
2018-12-11T13:10:07.478Z,2.77
2018-12-11T13:12:38.342Z,3.73
2018-12-11T13:15:11.094Z,2.80
2018-12-11T13:17:42.192Z,2.20
2018-12-11T13:20:13.447Z,2.77
2018-12-11T13:22:45.075Z,2.63
2018-12-11T13:25:16.715Z,2.60
2018-12-11T13:27:46.926Z,4.07
2018-12-11T13:30:18.146Z,3.73
2018-12-11T13:32:49.375Z,2.70
2018-12-11T13:35:21.503Z,2.57
2018-12-11T13:37:52.408Z,1.73
2018-12-11T13:40:23.598Z,1.77
2018-12-11T13:42:55.127Z,3.10
2018-12-11T13:45:26.295Z,2.03
2018-12-11T13:47:56.510Z,2.37
2018-12-11T13:50:26.446Z,2.53
2018-12-11T13:52:57.451Z,2.80
2018-12-11T13:55:27.705Z,2.17
2018-12-11T13:57:58.109Z,2.83
2018-12-11T14:00:28.055Z,3.13
2018-12-11T14:02:57.893Z,2.83
2018-12-11T14:05:28.381Z,2.47
2018-12-11T14:07:59.061Z,2.93
2018-12-11T14:10:29.475Z,2.60
2018-12-11T14:12:59.949Z,3.63
2018-12-11T14:15:30.767Z,3.20
2018-12-11T14:18:01.381Z,1.97
2018-12-11T14:20:32.222Z,3.70
2018-12-11T14:23:03.334Z,2.93
2018-12-11T14:25:33.240Z,2.43
2018-12-11T14:28:05.219Z,3.20
2018-12-11T14:30:36.081Z,3.10
2018-12-11T14:33:06.968Z,2.27
2018-12-11T14:35:37.788Z,2.93
2018-12-11T14:38:08.156Z,3.03
2018-12-11T14:40:39.022Z,3.77
2018-12-11T14:43:09.106Z,3.30
2018-12-11T14:45:39.762Z,3.17
2018-12-11T14:48:10.051Z,2.47
2018-12-11T14:50:40.761Z,3.73
2018-12-11T14:53:10.839Z,2.33
2018-12-11T14:55:41.622Z,3.10
2018-12-11T14:58:11.491Z,2.93
2018-12-11T15:00:42.199Z,3.63
2018-12-11T15:03:12.718Z,2.83
2018-12-11T15:05:43.671Z,3.43
2018-12-11T15:08:13.771Z,4.07
2018-12-11T15:10:44.763Z,3.90
2018-12-11T15:13:15.577Z,4.87
2018-12-11T15:15:45.927Z,5.33
2018-12-11T15:18:17.202Z,6.07
2018-12-11T15:20:48.170Z,4.33
2018-12-11T15:23:18.252Z,3.33
2018-12-11T15:25:48.127Z,4.50
2018-12-11T15:28:18.986Z,6.77
2018-12-11T15:30:48.799Z,19.13
2018-12-11T15:33:19.474Z,21.20
2018-12-11T15:35:50.711Z,16.60
2018-12-11T15:38:21.702Z,13.30
2018-12-11T15:40:52.827Z,10.20
2018-12-11T15:43:23.750Z,5.60
2018-12-11T15:46:00.804Z,7.20
2018-12-11T15:48:26.684Z,5.80
2018-12-11T15:50:56.821Z,7.87
2018-12-11T15:53:27.517Z,13.23
2018-12-11T15:55:58.186Z,12.10
2018-12-11T15:58:30.350Z,10.90
2018-12-11T16:01:02.277Z,9.03
2018-12-11T16:03:33.283Z,6.77
2018-12-11T16:06:05.608Z,6.83
2018-12-11T16:08:36.632Z,5.80
2018-12-11T16:11:07.268Z,5.60
2018-12-11T16:13:38.360Z,5.70
2018-12-11T16:16:09.366Z,4.53
2018-12-11T16:18:40.722Z,5.03
2018-12-11T16:21:11.289Z,4.80
2018-12-11T16:23:42.686Z,4.97
2018-12-11T16:26:14.311Z,4.47
2018-12-11T16:28:45.874Z,5.60
2018-12-11T16:31:18.056Z,4.20
2018-12-11T16:33:49.107Z,4.23
2018-12-11T16:36:20.253Z,5.30
2018-12-11T16:38:51.654Z,3.97
2018-12-11T16:41:23.024Z,5.83
2018-12-11T16:43:54.249Z,8.10
2018-12-11T16:46:25.313Z,7.23
2018-12-11T16:48:56.597Z,6.43
2018-12-11T16:51:27.762Z,7.47
2018-12-11T16:53:59.225Z,5.20
2018-12-11T16:56:30.474Z,5.63
2018-12-11T16:59:01.776Z,4.67
2018-12-11T17:01:32.788Z,4.67
2018-12-11T17:04:04.151Z,6.13
2018-12-11T17:06:35.932Z,7.03
2018-12-11T17:09:10.499Z,7.00
2018-12-11T17:11:42.094Z,4.63
2018-12-11T17:14:13.202Z,4.40
2018-12-11T17:16:44.895Z,6.20
2018-12-11T17:19:16.000Z,4.63
2018-12-11T17:21:47.129Z,4.37
2018-12-11T17:24:19.439Z,4.93
2018-12-11T17:26:51.536Z,4.23
2018-12-11T17:29:24.421Z,5.73
2018-12-11T17:31:55.939Z,4.47
2018-12-11T17:34:27.412Z,5.27
2018-12-11T17:36:57.385Z,5.70
2018-12-11T17:39:27.993Z,5.00
2018-12-11T17:41:59.402Z,4.87
2018-12-11T17:44:30.698Z,4.50
2018-12-11T17:47:02.630Z,4.27
2018-12-11T17:49:34.659Z,3.93
2018-12-11T17:52:06.100Z,4.07
2018-12-11T17:54:38.294Z,3.53
2018-12-11T17:57:10.136Z,5.60
2018-12-11T17:59:42.474Z,4.10
2018-12-11T18:02:19.105Z,2.60
2018-12-11T18:04:51.318Z,3.00
2018-12-11T18:07:25.515Z,5.00
2018-12-11T18:09:57.050Z,5.07
2018-12-11T18:12:28.775Z,3.53
2018-12-11T18:14:59.075Z,4.43
2018-12-11T18:17:30.330Z,5.20
2018-12-11T18:20:01.744Z,3.23
2018-12-11T18:22:33.103Z,4.53
2018-12-11T18:25:03.427Z,5.47
2018-12-11T18:27:34.018Z,5.63
2018-12-11T18:30:07.151Z,7.73
2018-12-11T18:32:39.630Z,5.63
2018-12-11T18:35:14.496Z,7.40
2018-12-11T18:37:45.830Z,6.43
2018-12-11T18:40:17.391Z,5.77
2018-12-11T18:42:48.959Z,4.53
2018-12-11T18:45:19.621Z,5.47
2018-12-11T18:47:50.589Z,4.00
2018-12-11T18:50:21.915Z,5.23
2018-12-11T18:52:52.672Z,4.87
2018-12-11T18:55:23.098Z,4.03
2018-12-11T18:57:54.476Z,3.53
2018-12-11T19:00:25.963Z,5.30
2018-12-11T19:02:57.660Z,4.67
2018-12-11T19:05:28.569Z,6.43
2018-12-11T19:08:00.353Z,5.87
2018-12-11T19:10:32.494Z,6.50
2018-12-11T19:13:03.829Z,5.90
2018-12-11T19:15:33.986Z,6.27
2018-12-11T19:18:04.930Z,7.80
2018-12-11T19:20:35.217Z,6.73
2018-12-11T19:23:20.085Z,6.43
2018-12-11T19:25:51.607Z,7.20
2018-12-11T19:28:22.959Z,7.97
2018-12-11T19:30:53.828Z,9.30
2018-12-11T19:33:24.891Z,7.07
2018-12-11T19:35:58.010Z,6.67
2018-12-11T19:38:28.993Z,8.43
2018-12-11T19:41:00.062Z,7.43
2018-12-11T19:43:31.043Z,7.47
2018-12-11T19:46:00.870Z,6.37
2018-12-11T19:48:32.063Z,7.43
2018-12-11T19:51:04.311Z,6.07
2018-12-11T19:53:35.741Z,6.37
2018-12-11T19:56:07.165Z,6.47
2018-12-11T19:58:38.400Z,6.47
2018-12-11T20:01:09.287Z,4.60
2018-12-11T20:03:40.572Z,3.57
2018-12-11T20:06:11.120Z,4.20
2018-12-11T20:08:42.289Z,5.43
2018-12-11T20:11:13.769Z,4.60
2018-12-11T20:13:46.169Z,4.40
2018-12-11T20:16:16.106Z,4.00
2018-12-11T20:18:46.915Z,3.57
2018-12-11T20:21:18.261Z,4.27
2018-12-11T20:23:49.657Z,4.00
2018-12-11T20:26:21.426Z,5.23
2018-12-11T20:28:53.138Z,5.57
2018-12-11T20:31:25.027Z,4.53
2018-12-11T20:33:56.895Z,4.70
2018-12-11T20:36:29.593Z,3.37
2018-12-11T20:39:01.816Z,4.73
2018-12-11T20:41:34.079Z,4.90
2018-12-11T20:44:06.507Z,5.00
2018-12-11T20:46:36.683Z,4.87
2018-12-11T20:49:08.894Z,5.47
2018-12-11T20:51:40.457Z,4.63
2018-12-11T20:54:11.866Z,4.07
2018-12-11T20:56:43.655Z,5.87
2018-12-11T20:59:15.385Z,5.90
2018-12-11T21:01:47.777Z,5.20
2018-12-11T21:04:19.056Z,4.27
2018-12-11T21:06:51.047Z,4.10
2018-12-11T21:09:22.321Z,5.27
2018-12-11T21:11:54.280Z,6.13
2018-12-11T21:14:27.143Z,4.67
2018-12-11T21:16:58.952Z,2.93
2018-12-11T21:19:30.809Z,3.83
2018-12-11T21:22:02.571Z,3.77
2018-12-11T21:24:34.278Z,3.30
2018-12-11T21:27:05.630Z,4.20
2018-12-11T21:29:36.804Z,4.67
2018-12-11T21:32:08.483Z,3.97
2018-12-11T21:34:40.501Z,3.47
2018-12-11T21:37:12.412Z,5.27
2018-12-11T21:39:42.817Z,3.67
2018-12-11T21:42:14.674Z,4.87
2018-12-11T21:44:46.787Z,4.30
2018-12-11T21:47:18.534Z,5.73
2018-12-11T21:49:50.698Z,5.20
2018-12-11T21:52:22.382Z,5.07
2018-12-11T21:54:54.202Z,5.37
2018-12-11T21:57:26.580Z,4.43
2018-12-11T21:59:57.517Z,5.97
2018-12-11T22:02:28.078Z,6.20
2018-12-11T22:04:58.547Z,4.17
2018-12-11T22:07:29.489Z,6.57
2018-12-11T22:10:00.466Z,5.33
2018-12-11T22:12:32.226Z,4.70
2018-12-11T22:15:03.932Z,4.90
2018-12-11T22:17:35.828Z,4.77
2018-12-11T22:20:07.842Z,4.43
2018-12-11T22:22:38.901Z,4.23
2018-12-11T22:25:10.385Z,6.30
2018-12-11T22:27:41.633Z,6.47
2018-12-11T22:30:13.393Z,5.33
2018-12-11T22:32:44.610Z,5.70
2018-12-11T22:35:15.878Z,6.00
2018-12-11T22:37:47.293Z,6.27
2018-12-11T22:40:18.425Z,3.97
2018-12-11T22:42:49.795Z,5.37
2018-12-11T22:45:21.462Z,5.53
2018-12-11T22:47:52.878Z,4.87
2018-12-11T22:50:24.215Z,6.00
2018-12-11T22:52:55.823Z,7.13
2018-12-11T22:55:26.822Z,5.20
2018-12-11T22:57:57.465Z,5.53
2018-12-11T23:00:29.304Z,3.97
2018-12-11T23:02:59.961Z,4.40
2018-12-11T23:05:31.193Z,4.67
2018-12-11T23:08:01.919Z,4.77
2018-12-11T23:10:33.248Z,4.50
2018-12-11T23:13:04.784Z,4.80
2018-12-11T23:15:35.855Z,5.77
2018-12-11T23:18:07.130Z,3.67
2018-12-11T23:20:38.950Z,5.33
2018-12-11T23:23:10.837Z,2.97
2018-12-11T23:25:41.844Z,4.97
2018-12-11T23:28:12.748Z,4.23
2018-12-11T23:30:43.436Z,4.10
2018-12-11T23:33:14.296Z,4.57
2018-12-11T23:35:45.119Z,4.33
2018-12-11T23:38:16.364Z,4.50
2018-12-11T23:40:47.084Z,4.47
2018-12-11T23:43:17.952Z,3.83
2018-12-11T23:45:48.822Z,4.50
2018-12-11T23:48:20.081Z,4.73
2018-12-11T23:50:50.906Z,5.80
2018-12-11T23:53:22.414Z,4.03
2018-12-11T23:55:54.339Z,4.63
2018-12-11T23:58:25.652Z,6.33
